createdAt,value
2023-01-18T00:02:11.559Z,12.36
2023-01-18T00:04:44.807Z,12.23
2023-01-18T00:07:19.501Z,12.40
2023-01-18T00:09:53.135Z,12.38
2023-01-18T00:12:26.803Z,12.29
2023-01-18T00:15:00.927Z,12.35
2023-01-18T00:17:47.660Z,12.22
2023-01-18T00:20:23.189Z,12.22
2023-01-18T00:23:01.912Z,12.35
2023-01-18T00:25:35.568Z,12.33
2023-01-18T00:28:09.190Z,12.40
2023-01-18T00:30:42.720Z,12.32
2023-01-18T00:33:16.189Z,12.28
2023-01-18T00:35:56.765Z,12.33
2023-01-18T00:38:31.999Z,12.20
2023-01-18T00:41:05.523Z,12.21
2023-01-18T00:43:40.509Z,12.08
2023-01-18T00:46:15.733Z,12.34
2023-01-18T00:48:49.422Z,12.18
2023-01-18T00:51:24.025Z,12.24
2023-01-18T00:53:58.436Z,12.24
2023-01-18T00:56:32.211Z,12.43
2023-01-18T00:59:05.685Z,12.29
2023-01-18T01:01:38.974Z,12.17
2023-01-18T01:04:29.677Z,12.21
2023-01-18T01:07:02.928Z,12.27
2023-01-18T01:09:37.524Z,12.22
2023-01-18T01:12:29.110Z,12.16
2023-01-18T01:15:20.506Z,12.16
2023-01-18T01:18:10.793Z,12.34
2023-01-18T01:21:01.614Z,12.22
2023-01-18T01:23:52.665Z,12.12
2023-01-18T01:26:27.380Z,12.16
2023-01-18T01:29:00.907Z,12.09
2023-01-18T01:31:34.246Z,12.08
2023-01-18T01:34:07.530Z,11.97
2023-01-18T01:36:40.698Z,12.03
2023-01-18T01:39:13.922Z,12.08
2023-01-18T01:41:49.123Z,12.11
2023-01-18T01:44:43.188Z,12.14
2023-01-18T01:47:37.493Z,12.28
2023-01-18T01:50:18.491Z,12.30
2023-01-18T01:52:52.034Z,12.17
2023-01-18T01:55:30.305Z,12.14
2023-01-18T01:58:08.982Z,12.11
2023-01-18T02:00:42.396Z,12.16
2023-01-18T02:03:19.257Z,12.14
2023-01-18T02:05:58.004Z,12.06
2023-01-18T02:08:31.608Z,12.03
2023-01-18T02:11:05.108Z,12.01
2023-01-18T02:13:40.088Z,12.11
2023-01-18T02:16:21.676Z,12.13
2023-01-18T02:19:03.885Z,12.19
2023-01-18T02:21:41.638Z,12.15
2023-01-18T02:25:06.240Z,12.21
2023-01-18T02:27:44.471Z,12.18
2023-01-18T02:30:29.700Z,12.10
2023-01-18T02:33:07.661Z,12.18
2023-01-18T02:35:48.860Z,12.16
2023-01-18T02:38:25.381Z,12.06
2023-01-18T02:41:10.145Z,12.24
2023-01-18T02:44:03.703Z,12.30
2023-01-18T02:46:39.194Z,12.12
2023-01-18T02:49:19.448Z,12.11
2023-01-18T02:52:02.235Z,12.07
2023-01-18T02:54:38.332Z,12.11
2023-01-18T02:57:17.833Z,12.06
2023-01-18T02:59:55.872Z,12.16
2023-01-18T03:02:30.406Z,12.28
2023-01-18T03:05:04.580Z,12.08
2023-01-18T03:07:46.490Z,12.23
2023-01-18T03:10:19.860Z,12.33
2023-01-18T03:13:00.135Z,12.44
2023-01-18T03:15:44.323Z,12.32
2023-01-18T03:18:24.207Z,12.38
2023-01-18T03:20:58.285Z,12.30
2023-01-18T03:23:42.500Z,12.32
2023-01-18T03:26:18.845Z,12.38
2023-01-18T03:29:13.854Z,12.33
2023-01-18T03:32:07.952Z,12.25
2023-01-18T03:34:48.599Z,12.42
2023-01-18T03:37:27.737Z,12.28
2023-01-18T03:40:04.674Z,12.23
2023-01-18T03:42:45.989Z,12.15
2023-01-18T03:45:28.147Z,12.14
2023-01-18T03:48:02.711Z,12.15
2023-01-18T03:50:50.506Z,12.09
2023-01-18T03:53:32.887Z,12.05
2023-01-18T03:56:10.952Z,12.01
2023-01-18T03:58:46.355Z,12.23
2023-01-18T04:01:20.818Z,12.27
2023-01-18T04:03:54.308Z,12.24
2023-01-18T04:06:30.269Z,12.32
2023-01-18T04:09:04.472Z,12.23
2023-01-18T04:11:37.613Z,12.31
2023-01-18T04:14:11.533Z,12.16
2023-01-18T04:16:45.192Z,12.13
2023-01-18T04:19:19.259Z,12.12
2023-01-18T04:21:54.191Z,12.07
2023-01-18T04:24:27.422Z,12.23
2023-01-18T04:27:03.691Z,12.27
2023-01-18T04:29:37.297Z,12.21
2023-01-18T04:32:10.735Z,12.21
2023-01-18T04:34:43.978Z,12.19
2023-01-18T04:37:18.587Z,12.22
2023-01-18T04:39:51.698Z,12.12
2023-01-18T04:42:25.901Z,12.06
2023-01-18T04:44:59.896Z,12.17
2023-01-18T04:47:33.008Z,12.01
2023-01-18T04:50:07.709Z,12.25
2023-01-18T04:52:42.500Z,12.15
2023-01-18T04:55:16.044Z,11.73
2023-01-18T04:57:55.605Z,11.92
2023-01-18T05:00:29.144Z,11.92
2023-01-18T05:03:02.980Z,12.03
2023-01-18T05:05:36.203Z,12.03
2023-01-18T05:08:11.091Z,11.92
2023-01-18T05:10:44.208Z,11.87
2023-01-18T05:13:18.019Z,11.87
2023-01-18T05:15:51.791Z,11.90
2023-01-18T05:18:25.236Z,11.88
2023-01-18T05:20:58.503Z,12.02
2023-01-18T05:23:33.333Z,11.93
2023-01-18T05:26:13.644Z,11.95
2023-01-18T05:28:47.644Z,12.04
2023-01-18T05:31:21.440Z,12.04
2023-01-18T05:33:54.729Z,11.95
2023-01-18T05:36:28.027Z,11.94
2023-01-18T05:39:03.056Z,11.96
2023-01-18T05:41:37.598Z,11.99
2023-01-18T05:44:11.268Z,11.95
2023-01-18T05:46:44.569Z,12.02
2023-01-18T05:49:17.739Z,12.05
2023-01-18T05:51:51.400Z,12.08
2023-01-18T05:54:26.166Z,11.92
2023-01-18T05:57:01.217Z,11.83
2023-01-18T05:59:35.364Z,11.87
2023-01-18T06:02:08.911Z,11.91
2023-01-18T06:04:44.424Z,11.94
2023-01-18T06:07:17.843Z,12.01
2023-01-18T06:09:52.539Z,12.01
2023-01-18T06:12:26.383Z,11.92
2023-01-18T06:15:00.576Z,11.84
2023-01-18T06:17:34.252Z,11.78
2023-01-18T06:20:08.994Z,11.56
2023-01-18T06:22:42.569Z,11.82
2023-01-18T06:25:17.928Z,11.82
2023-01-18T06:27:51.558Z,11.77
2023-01-18T06:30:25.480Z,11.80
2023-01-18T06:32:58.938Z,11.80
2023-01-18T06:35:32.389Z,11.77
2023-01-18T06:38:06.665Z,11.78
2023-01-18T06:40:41.219Z,12.08
2023-01-18T06:43:16.022Z,11.87
2023-01-18T06:45:53.747Z,11.88
2023-01-18T06:48:28.602Z,11.85
2023-01-18T06:51:02.259Z,11.93
2023-01-18T06:53:37.772Z,11.88
2023-01-18T06:56:14.426Z,11.88
2023-01-18T06:58:48.002Z,11.90
2023-01-18T07:01:21.332Z,11.93
2023-01-18T07:03:55.745Z,11.89
2023-01-18T07:06:29.697Z,12.02
2023-01-18T07:09:02.917Z,12.15
2023-01-18T07:11:37.976Z,12.22
2023-01-18T07:14:12.000Z,12.08
2023-01-18T07:16:45.419Z,12.14
2023-01-18T07:19:18.838Z,12.37
2023-01-18T07:21:53.812Z,12.32
2023-01-18T07:24:27.466Z,12.33
2023-01-18T07:27:03.273Z,12.44
2023-01-18T07:29:40.009Z,12.39
2023-01-18T07:32:13.505Z,12.41
2023-01-18T07:34:46.784Z,12.50
2023-01-18T07:37:20.444Z,12.52
2023-01-18T07:39:53.910Z,12.84
2023-01-18T07:42:29.094Z,12.76
2023-01-18T07:45:02.295Z,12.68
2023-01-18T07:47:36.903Z,12.64
2023-01-18T07:50:11.678Z,12.84
2023-01-18T07:52:44.898Z,12.66
2023-01-18T07:55:18.156Z,12.80
2023-01-18T07:57:52.796Z,13.18
2023-01-18T08:00:26.959Z,13.19
2023-01-18T08:03:02.664Z,13.03
2023-01-18T08:05:36.182Z,13.24
2023-01-18T08:08:11.313Z,13.27
2023-01-18T08:10:45.855Z,13.24
2023-01-18T08:13:21.148Z,13.37
2023-01-18T08:15:56.844Z,13.58
2023-01-18T08:18:31.816Z,13.52
2023-01-18T08:21:06.161Z,13.54
2023-01-18T08:23:39.732Z,13.47
2023-01-18T08:26:15.393Z,13.40
2023-01-18T08:28:50.023Z,13.39
2023-01-18T08:31:23.370Z,13.62
2023-01-18T08:33:56.641Z,13.45
2023-01-18T08:36:31.792Z,13.64
2023-01-18T08:39:05.216Z,13.66
2023-01-18T08:41:38.791Z,13.56
2023-01-18T08:44:13.897Z,13.70
2023-01-18T08:46:47.472Z,13.73
2023-01-18T08:49:20.964Z,13.81
2023-01-18T08:51:54.593Z,14.02
2023-01-18T08:54:28.416Z,14.17
2023-01-18T08:57:02.641Z,14.26
2023-01-18T08:59:37.595Z,14.44
2023-01-18T09:02:11.259Z,14.49
2023-01-18T09:04:48.641Z,14.66
2023-01-18T09:07:21.959Z,14.80
2023-01-18T09:09:55.439Z,14.73
2023-01-18T09:12:30.849Z,14.88
2023-01-18T09:15:06.859Z,14.90
2023-01-18T09:17:40.261Z,15.01
2023-01-18T09:20:14.220Z,15.07
2023-01-18T09:22:48.915Z,15.28
2023-01-18T09:25:22.311Z,15.20
2023-01-18T09:27:55.497Z,15.23
2023-01-18T09:30:30.699Z,15.39
2023-01-18T09:33:03.878Z,15.36
2023-01-18T09:35:37.090Z,15.38
2023-01-18T09:38:12.415Z,15.29
2023-01-18T09:40:46.503Z,15.13
2023-01-18T09:43:29.605Z,15.09
2023-01-18T09:46:04.751Z,15.06
2023-01-18T09:48:41.103Z,15.33
2023-01-18T09:51:22.818Z,15.08
2023-01-18T09:54:06.173Z,15.11
2023-01-18T09:56:47.950Z,14.97
2023-01-18T09:59:25.751Z,15.14
2023-01-18T10:02:03.686Z,15.18
2023-01-18T10:04:42.886Z,15.12
2023-01-18T10:07:18.547Z,15.08
2023-01-18T10:09:54.668Z,15.12
2023-01-18T10:12:35.720Z,15.09
2023-01-18T10:15:17.815Z,15.11
2023-01-18T10:17:56.661Z,14.95
2023-01-18T10:20:38.449Z,15.12
2023-01-18T10:23:19.006Z,15.34
2023-01-18T10:25:56.456Z,15.20
2023-01-18T10:28:42.057Z,15.06
2023-01-18T10:31:34.012Z,15.15
2023-01-18T10:34:17.771Z,15.32
2023-01-18T10:36:56.640Z,15.28
2023-01-18T10:39:36.037Z,15.40
2023-01-18T10:42:24.461Z,15.31
2023-01-18T10:44:57.592Z,15.51
2023-01-18T10:47:31.200Z,15.37
2023-01-18T10:50:14.218Z,15.34
2023-01-18T10:52:47.676Z,15.18
2023-01-18T10:55:21.571Z,15.12
2023-01-18T10:57:56.458Z,15.16
2023-01-18T11:00:35.276Z,14.77
2023-01-18T11:03:16.237Z,14.97
2023-01-18T11:05:51.330Z,15.04
2023-01-18T11:08:31.623Z,15.11
2023-01-18T11:11:06.807Z,14.99
2023-01-18T11:13:44.246Z,15.11
2023-01-18T11:16:19.291Z,15.10
2023-01-18T11:19:01.282Z,14.75
2023-01-18T11:21:47.941Z,15.15
2023-01-18T11:24:27.727Z,15.17
2023-01-18T11:27:03.004Z,15.01
2023-01-18T11:29:39.607Z,15.04
2023-01-18T11:32:24.001Z,14.97
2023-01-18T11:34:59.929Z,15.06
2023-01-18T11:37:37.771Z,15.07
2023-01-18T11:40:28.028Z,14.99
2023-01-18T11:43:09.391Z,15.06
2023-01-18T11:45:49.824Z,15.03
2023-01-18T11:48:30.231Z,15.00
2023-01-18T11:51:08.453Z,14.86
2023-01-18T11:53:54.295Z,14.91
2023-01-18T11:56:34.366Z,15.05
2023-01-18T11:59:15.502Z,15.00
2023-01-18T12:02:04.286Z,14.91
2023-01-18T12:04:50.921Z,14.97
2023-01-18T12:07:35.458Z,14.92
2023-01-18T12:10:16.991Z,14.91
2023-01-18T12:13:07.213Z,14.50
2023-01-18T12:15:57.379Z,14.72
2023-01-18T12:18:55.341Z,14.76
2023-01-18T12:21:35.601Z,14.75
2023-01-18T12:24:34.004Z,14.66
2023-01-18T12:27:19.660Z,14.63
2023-01-18T12:30:23.524Z,14.72
2023-01-18T12:33:34.379Z,14.67
2023-01-18T12:36:52.100Z,14.61
2023-01-18T12:39:47.379Z,14.62
2023-01-18T12:42:34.362Z,14.66
2023-01-18T12:45:19.849Z,14.57
2023-01-18T12:48:06.144Z,14.60
2023-01-18T12:50:42.529Z,14.33
2023-01-18T12:53:20.206Z,14.62
2023-01-18T12:55:55.847Z,14.57
2023-01-18T12:58:30.645Z,14.60
2023-01-18T13:01:08.651Z,14.55
2023-01-18T13:03:46.075Z,14.57
2023-01-18T13:06:21.773Z,14.45
2023-01-18T13:09:00.570Z,14.59
2023-01-18T13:11:37.872Z,14.47
2023-01-18T13:14:20.196Z,14.44
2023-01-18T13:17:02.852Z,14.43
2023-01-18T13:19:43.996Z,14.42
2023-01-18T13:22:26.373Z,14.40
2023-01-18T13:25:26.363Z,14.30
2023-01-18T13:28:01.646Z,14.39
2023-01-18T13:30:53.447Z,14.33
2023-01-18T13:33:28.576Z,14.34
2023-01-18T13:36:05.630Z,14.37
2023-01-18T13:38:48.902Z,14.39
2023-01-18T13:41:24.875Z,14.33
2023-01-18T13:44:04.632Z,14.13
2023-01-18T13:46:42.425Z,14.23
2023-01-18T13:49:37.618Z,14.28
2023-01-18T13:52:33.585Z,14.09
2023-01-18T13:55:26.143Z,14.36
2023-01-18T13:57:59.899Z,14.33
2023-01-18T14:00:35.198Z,14.25
2023-01-18T14:03:20.504Z,14.41
2023-01-18T14:05:57.205Z,14.38
2023-01-18T14:08:34.361Z,14.33
2023-01-18T14:11:10.691Z,14.19
2023-01-18T14:14:08.402Z,14.14
2023-01-18T14:16:56.163Z,14.08
2023-01-18T14:19:36.533Z,13.98
2023-01-18T14:22:19.327Z,14.06
2023-01-18T14:25:19.056Z,14.04
2023-01-18T14:28:03.373Z,14.00
2023-01-18T14:30:41.073Z,14.09
2023-01-18T14:33:19.079Z,14.03
2023-01-18T14:35:55.167Z,14.09
2023-01-18T14:38:29.001Z,14.04
2023-01-18T14:41:06.871Z,14.03
2023-01-18T14:43:46.959Z,13.96
2023-01-18T14:46:25.371Z,13.98
2023-01-18T14:49:01.747Z,13.88
2023-01-18T14:51:36.688Z,13.85
2023-01-18T14:54:17.919Z,13.56
2023-01-18T14:56:51.257Z,13.84
2023-01-18T14:59:27.644Z,13.83
2023-01-18T15:02:02.824Z,13.86
2023-01-18T15:04:39.184Z,13.76
2023-01-18T15:07:19.995Z,13.73
2023-01-18T15:09:53.688Z,13.69
2023-01-18T15:12:30.461Z,13.76
2023-01-18T15:15:07.855Z,13.68
2023-01-18T15:17:41.789Z,13.72
2023-01-18T15:20:16.247Z,13.75
2023-01-18T15:22:51.167Z,13.67
2023-01-18T15:25:28.237Z,13.74
2023-01-18T15:28:22.466Z,13.65
2023-01-18T15:30:57.684Z,13.67
2023-01-18T15:33:33.230Z,13.62
2023-01-18T15:36:08.324Z,13.58
2023-01-18T15:38:43.376Z,13.56
2023-01-18T15:41:17.978Z,13.62
2023-01-18T15:43:51.729Z,13.60
2023-01-18T15:46:25.934Z,13.57
2023-01-18T15:48:59.676Z,13.55
2023-01-18T15:51:50.390Z,13.65
2023-01-18T15:54:28.114Z,13.55
2023-01-18T15:57:12.920Z,13.57
2023-01-18T15:59:47.654Z,13.49
2023-01-18T16:02:22.864Z,13.56
2023-01-18T16:05:09.632Z,13.53
2023-01-18T16:07:43.110Z,13.46
2023-01-18T16:10:31.302Z,13.39
2023-01-18T16:13:37.743Z,13.44
2023-01-18T16:16:23.163Z,13.40
2023-01-18T16:19:08.082Z,13.45
2023-01-18T16:21:46.615Z,13.44
2023-01-18T16:24:28.215Z,13.29
2023-01-18T16:27:11.265Z,13.41
2023-01-18T16:29:46.565Z,13.38
2023-01-18T16:32:31.997Z,13.38
2023-01-18T16:35:14.087Z,13.39
2023-01-18T16:38:02.375Z,13.36
2023-01-18T16:40:52.036Z,13.36
2023-01-18T16:43:43.158Z,13.37
2023-01-18T16:46:16.391Z,13.31
2023-01-18T16:48:49.714Z,13.30
2023-01-18T16:51:24.513Z,13.34
2023-01-18T16:53:58.479Z,13.28
2023-01-18T16:56:47.571Z,13.22
2023-01-18T16:59:37.760Z,13.28
2023-01-18T17:02:11.577Z,13.29
2023-01-18T17:04:46.637Z,13.18
2023-01-18T17:07:20.619Z,13.24
2023-01-18T17:09:53.875Z,13.20
2023-01-18T17:12:30.876Z,13.17
2023-01-18T17:15:07.377Z,13.25
2023-01-18T17:17:43.260Z,13.22
2023-01-18T17:20:19.047Z,13.21
2023-01-18T17:22:53.226Z,13.19
2023-01-18T17:25:26.798Z,13.09
2023-01-18T17:28:00.947Z,13.06
2023-01-18T17:30:37.977Z,13.14
2023-01-18T17:33:17.805Z,13.01
2023-01-18T17:35:52.187Z,13.19
2023-01-18T17:38:29.585Z,13.23
2023-01-18T17:41:04.128Z,13.18
2023-01-18T17:43:37.646Z,13.16
2023-01-18T17:46:12.743Z,13.17
2023-01-18T17:48:46.124Z,13.00
2023-01-18T17:51:19.526Z,12.95
2023-01-18T17:53:54.471Z,13.07
2023-01-18T17:56:27.742Z,13.05
2023-01-18T17:59:01.413Z,12.99
2023-01-18T18:01:36.332Z,12.97
2023-01-18T18:04:09.904Z,12.99
2023-01-18T18:06:53.790Z,12.96
2023-01-18T18:09:27.671Z,12.99
2023-01-18T18:12:01.301Z,12.95
2023-01-18T18:14:35.628Z,12.89
2023-01-18T18:17:10.150Z,12.92
2023-01-18T18:19:43.637Z,13.04
2023-01-18T18:22:17.564Z,12.90
2023-01-18T18:24:52.098Z,12.69
2023-01-18T18:27:37.283Z,12.87
2023-01-18T18:30:18.824Z,12.84
2023-01-18T18:32:53.553Z,12.86
2023-01-18T18:35:32.189Z,12.77
2023-01-18T18:38:05.629Z,12.87
2023-01-18T18:40:39.088Z,12.87
2023-01-18T18:43:12.888Z,12.76
2023-01-18T18:45:47.203Z,12.86
2023-01-18T18:48:22.057Z,12.82
2023-01-18T18:50:55.943Z,12.80
2023-01-18T18:53:37.466Z,12.80
2023-01-18T18:56:11.716Z,12.85
2023-01-18T18:58:45.290Z,12.81
2023-01-18T19:01:22.024Z,12.77
2023-01-18T19:03:58.782Z,12.80
2023-01-18T19:06:32.350Z,12.78
2023-01-18T19:09:06.706Z,12.85
2023-01-18T19:11:50.435Z,12.82
2023-01-18T19:14:27.953Z,12.82
2023-01-18T19:17:01.662Z,12.75
2023-01-18T19:19:37.295Z,12.76
2023-01-18T19:22:11.152Z,12.68
2023-01-18T19:24:44.611Z,12.62
2023-01-18T19:27:18.118Z,12.58
2023-01-18T19:29:53.507Z,12.54
2023-01-18T19:32:27.570Z,12.52
2023-01-18T19:35:02.377Z,12.48
2023-01-18T19:37:36.209Z,12.52
2023-01-18T19:40:11.238Z,12.52
2023-01-18T19:42:46.790Z,12.51
2023-01-18T19:45:27.814Z,12.49
2023-01-18T19:48:02.399Z,12.45
2023-01-18T19:50:37.221Z,12.43
2023-01-18T19:53:10.807Z,12.44
2023-01-18T19:55:44.212Z,12.42
2023-01-18T19:58:17.850Z,12.41
2023-01-18T20:00:52.503Z,12.36
2023-01-18T20:03:26.510Z,12.32
2023-01-18T20:06:01.407Z,12.34
2023-01-18T20:08:35.546Z,12.35
2023-01-18T20:11:11.539Z,12.30
2023-01-18T20:13:49.647Z,12.34
2023-01-18T20:16:24.650Z,12.36
2023-01-18T20:18:58.640Z,12.34
2023-01-18T20:21:33.633Z,12.39
2023-01-18T20:24:08.288Z,12.40
2023-01-18T20:26:42.149Z,12.38
2023-01-18T20:29:16.471Z,12.41
2023-01-18T20:31:50.442Z,12.39
2023-01-18T20:34:24.594Z,12.41
2023-01-18T20:36:59.384Z,12.44
2023-01-18T20:39:32.996Z,12.48
2023-01-18T20:42:06.784Z,12.53
2023-01-18T20:44:40.699Z,12.61
2023-01-18T20:47:13.680Z,12.60
2023-01-18T20:49:47.130Z,12.79
2023-01-18T20:52:22.035Z,12.72
2023-01-18T20:54:57.036Z,12.75
2023-01-18T20:57:31.760Z,12.79
2023-01-18T21:00:06.335Z,12.80
2023-01-18T21:02:39.906Z,12.82
2023-01-18T21:05:13.241Z,12.80
2023-01-18T21:07:47.916Z,12.84
2023-01-18T21:10:21.659Z,12.85
2023-01-18T21:12:55.757Z,12.82
2023-01-18T21:15:29.490Z,12.84
2023-01-18T21:18:04.285Z,12.84
2023-01-18T21:20:37.718Z,12.68
2023-01-18T21:23:12.585Z,13.02
2023-01-18T21:25:50.585Z,13.03
2023-01-18T21:28:24.988Z,12.99
2023-01-18T21:30:58.503Z,12.84
2023-01-18T21:33:33.302Z,12.95
2023-01-18T21:36:08.076Z,12.87
2023-01-18T21:38:42.951Z,12.91
2023-01-18T21:41:33.974Z,13.11
2023-01-18T21:44:24.876Z,12.91
2023-01-18T21:46:58.905Z,12.96
2023-01-18T21:50:15.991Z,13.01
2023-01-18T21:53:00.106Z,13.01
2023-01-18T21:55:35.887Z,13.14
2023-01-18T21:58:26.358Z,13.13
2023-01-18T22:01:00.631Z,13.05
2023-01-18T22:03:34.040Z,12.99
2023-01-18T22:06:06.873Z,12.97
2023-01-18T22:08:40.134Z,13.09
2023-01-18T22:11:14.659Z,13.18
2023-01-18T22:13:48.533Z,13.10
2023-01-18T22:16:23.536Z,13.07
2023-01-18T22:18:57.078Z,13.13
2023-01-18T22:21:30.879Z,13.19
2023-01-18T22:24:04.316Z,13.29
2023-01-18T22:26:40.262Z,13.14
2023-01-18T22:29:13.921Z,13.18
2023-01-18T22:31:48.393Z,13.10
2023-01-18T22:34:21.506Z,13.12
2023-01-18T22:36:54.810Z,13.14
2023-01-18T22:39:28.061Z,13.06
2023-01-18T22:42:02.812Z,13.04
2023-01-18T22:44:37.093Z,12.94
2023-01-18T22:47:10.275Z,12.99
2023-01-18T22:49:43.492Z,12.98
2023-01-18T22:52:16.743Z,13.01
2023-01-18T22:54:49.969Z,12.99
2023-01-18T22:57:24.685Z,13.03
2023-01-18T22:59:57.923Z,13.04
2023-01-18T23:02:33.077Z,12.99
2023-01-18T23:05:07.279Z,12.99
2023-01-18T23:07:40.911Z,13.05
2023-01-18T23:10:14.215Z,13.01
2023-01-18T23:12:49.223Z,12.98
2023-01-18T23:15:40.549Z,12.98
2023-01-18T23:18:14.460Z,12.97
2023-01-18T23:20:47.663Z,12.91
2023-01-18T23:23:20.835Z,12.97
2023-01-18T23:25:57.399Z,12.76
2023-01-18T23:28:42.177Z,12.69
2023-01-18T23:31:17.437Z,13.00
2023-01-18T23:33:50.942Z,12.88
2023-01-18T23:36:24.600Z,12.98
2023-01-18T23:39:15.516Z,12.88
2023-01-18T23:42:06.381Z,12.86
2023-01-18T23:44:58.652Z,12.56
2023-01-18T23:47:49.459Z,12.85
2023-01-18T23:50:40.644Z,13.00
2023-01-18T23:53:32.462Z,12.95
2023-01-18T23:56:05.906Z,12.85
2023-01-18T23:58:40.866Z,12.85
